sensor_id;sensor_type;location;lat;lon;timestamp;P1;durP1;ratioP1;P2;durP2;ratioP2
14358;SDS011;7263;49.418;11.064;2024-02-04T00:00:07;2.33;;;1.50;;
14358;SDS011;7263;49.418;11.064;2024-02-04T00:02:38;1.90;;;1.30;;
14358;SDS011;7263;49.418;11.064;2024-02-04T00:05:16;1.20;;;1.10;;
14358;SDS011;7263;49.418;11.064;2024-02-04T00:07:43;1.40;;;1.30;;
14358;SDS011;7263;49.418;11.064;2024-02-04T00:10:10;1.67;;;1.40;;
14358;SDS011;7263;49.418;11.064;2024-02-04T00:12:46;1.30;;;1.17;;
14358;SDS011;7263;49.418;11.064;2024-02-04T00:15:12;2.00;;;1.30;;
14358;SDS011;7263;49.418;11.064;2024-02-04T00:17:48;1.40;;;1.30;;
14358;SDS011;7263;49.418;11.064;2024-02-04T00:20:19;1.63;;;1.33;;
14358;SDS011;7263;49.418;11.064;2024-02-04T00:22:49;1.63;;;1.37;;
14358;SDS011;7263;49.418;11.064;2024-02-04T00:25:18;1.73;;;1.10;;
14358;SDS011;7263;49.418;11.064;2024-02-04T00:27:48;1.20;;;1.10;;
14358;SDS011;7263;49.418;11.064;2024-02-04T00:30:15;1.20;;;1.10;;
14358;SDS011;7263;49.418;11.064;2024-02-04T00:32:42;1.00;;;0.90;;
14358;SDS011;7263;49.418;11.064;2024-02-04T00:35:11;0.90;;;0.90;;
14358;SDS011;7263;49.418;11.064;2024-02-04T00:37:48;1.57;;;0.90;;
14358;SDS011;7263;49.418;11.064;2024-02-04T00:40:14;0.80;;;0.80;;
14358;SDS011;7263;49.418;11.064;2024-02-04T00:42:45;0.80;;;0.80;;
14358;SDS011;7263;49.418;11.064;2024-02-04T00:45:14;1.10;;;0.93;;
14358;SDS011;7263;49.418;11.064;2024-02-04T00:47:44;1.03;;;1.00;;
14358;SDS011;7263;49.418;11.064;2024-02-04T00:50:11;1.10;;;1.00;;
14358;SDS011;7263;49.418;11.064;2024-02-04T00:52:49;2.10;;;1.00;;
14358;SDS011;7263;49.418;11.064;2024-02-04T00:55:22;1.03;;;0.80;;
14358;SDS011;7263;49.418;11.064;2024-02-04T00:57:48;0.97;;;0.90;;
14358;SDS011;7263;49.418;11.064;2024-02-04T01:00:15;2.77;;;0.90;;
14358;SDS011;7263;49.418;11.064;2024-02-04T01:02:42;0.83;;;0.70;;
14358;SDS011;7263;49.418;11.064;2024-02-04T01:05:18;1.20;;;1.10;;
14358;SDS011;7263;49.418;11.064;2024-02-04T01:07:49;1.93;;;1.03;;
14358;SDS011;7263;49.418;11.064;2024-02-04T01:10:19;0.70;;;0.70;;
14358;SDS011;7263;49.418;11.064;2024-02-04T01:12:48;1.07;;;0.77;;
14358;SDS011;7263;49.418;11.064;2024-02-04T01:15:18;0.93;;;0.93;;
14358;SDS011;7263;49.418;11.064;2024-02-04T01:21:01;0.83;;;0.80;;
14358;SDS011;7263;49.418;11.064;2024-02-04T01:23:32;0.80;;;0.80;;
14358;SDS011;7263;49.418;11.064;2024-02-04T01:25:59;1.20;;;0.90;;
14358;SDS011;7263;49.418;11.064;2024-02-04T01:28:33;1.00;;;1.00;;
14358;SDS011;7263;49.418;11.064;2024-02-04T01:31:06;1.07;;;0.97;;
14358;SDS011;7263;49.418;11.064;2024-02-04T01:33:38;0.87;;;0.87;;
14358;SDS011;7263;49.418;11.064;2024-02-04T01:36:05;1.43;;;1.03;;
14358;SDS011;7263;49.418;11.064;2024-02-04T01:38:41;1.47;;;1.00;;
14358;SDS011;7263;49.418;11.064;2024-02-04T01:41:08;1.23;;;1.13;;
14358;SDS011;7263;49.418;11.064;2024-02-04T01:43:41;0.77;;;0.77;;
14358;SDS011;7263;49.418;11.064;2024-02-04T01:46:08;0.90;;;0.90;;
14358;SDS011;7263;49.418;11.064;2024-02-04T01:48:38;1.00;;;0.90;;
14358;SDS011;7263;49.418;11.064;2024-02-04T01:51:05;1.20;;;1.10;;
14358;SDS011;7263;49.418;11.064;2024-02-04T01:53:44;1.37;;;1.10;;
14358;SDS011;7263;49.418;11.064;2024-02-04T01:56:14;2.03;;;1.20;;
14358;SDS011;7263;49.418;11.064;2024-02-04T01:58:41;0.90;;;0.80;;
14358;SDS011;7263;49.418;11.064;2024-02-04T02:01:14;1.10;;;1.00;;
14358;SDS011;7263;49.418;11.064;2024-02-04T02:03:51;2.07;;;1.10;;
14358;SDS011;7263;49.418;11.064;2024-02-04T02:06:27;1.43;;;1.00;;
14358;SDS011;7263;49.418;11.064;2024-02-04T02:09:06;1.10;;;1.00;;
14358;SDS011;7263;49.418;11.064;2024-02-04T02:11:40;1.87;;;1.30;;
14358;SDS011;7263;49.418;11.064;2024-02-04T02:14:18;1.33;;;1.00;;
14358;SDS011;7263;49.418;11.064;2024-02-04T02:16:53;1.30;;;1.20;;
14358;SDS011;7263;49.418;11.064;2024-02-04T02:19:31;4.33;;;1.00;;
14358;SDS011;7263;49.418;11.064;2024-02-04T02:22:06;1.80;;;1.30;;
14358;SDS011;7263;49.418;11.064;2024-02-04T02:24:50;1.17;;;1.07;;
14358;SDS011;7263;49.418;11.064;2024-02-04T02:27:22;1.40;;;1.30;;
14358;SDS011;7263;49.418;11.064;2024-02-04T02:29:56;1.07;;;1.00;;
14358;SDS011;7263;49.418;11.064;2024-02-04T02:32:29;1.40;;;1.10;;
14358;SDS011;7263;49.418;11.064;2024-02-04T02:34:59;1.10;;;1.00;;
14358;SDS011;7263;49.418;11.064;2024-02-04T02:37:29;0.87;;;0.87;;
14358;SDS011;7263;49.418;11.064;2024-02-04T02:42:48;1.57;;;1.23;;
14358;SDS011;7263;49.418;11.064;2024-02-04T02:45:17;1.13;;;1.00;;
14358;SDS011;7263;49.418;11.064;2024-02-04T02:47:50;1.40;;;0.90;;
14358;SDS011;7263;49.418;11.064;2024-02-04T02:50:18;0.93;;;0.93;;
14358;SDS011;7263;49.418;11.064;2024-02-04T02:52:45;1.20;;;1.10;;
14358;SDS011;7263;49.418;11.064;2024-02-04T02:55:15;2.07;;;1.13;;
14358;SDS011;7263;49.418;11.064;2024-02-04T02:57:46;1.43;;;1.10;;
14358;SDS011;7263;49.418;11.064;2024-02-04T03:00:18;1.13;;;1.03;;
14358;SDS011;7263;49.418;11.064;2024-02-04T03:02:52;1.40;;;1.13;;
14358;SDS011;7263;49.418;11.064;2024-02-04T03:05:35;1.13;;;1.03;;
14358;SDS011;7263;49.418;11.064;2024-02-04T03:08:08;1.80;;;1.10;;
14358;SDS011;7263;49.418;11.064;2024-02-04T03:10:35;1.43;;;1.30;;
14358;SDS011;7263;49.418;11.064;2024-02-04T03:13:03;1.30;;;1.20;;
14358;SDS011;7263;49.418;11.064;2024-02-04T03:15:32;2.17;;;1.30;;
14358;SDS011;7263;49.418;11.064;2024-02-04T03:17:59;1.63;;;1.40;;
14358;SDS011;7263;49.418;11.064;2024-02-04T03:20:32;1.13;;;1.03;;
14358;SDS011;7263;49.418;11.064;2024-02-04T03:22:59;1.30;;;1.20;;
14358;SDS011;7263;49.418;11.064;2024-02-04T03:25:25;2.80;;;1.30;;
14358;SDS011;7263;49.418;11.064;2024-02-04T03:27:54;1.60;;;1.50;;
14358;SDS011;7263;49.418;11.064;2024-02-04T03:30:25;1.50;;;1.40;;
14358;SDS011;7263;49.418;11.064;2024-02-04T03:32:52;1.50;;;1.40;;
14358;SDS011;7263;49.418;11.064;2024-02-04T03:35:18;2.13;;;1.63;;
14358;SDS011;7263;49.418;11.064;2024-02-04T03:37:48;1.50;;;1.40;;
14358;SDS011;7263;49.418;11.064;2024-02-04T03:40:18;1.60;;;1.50;;
14358;SDS011;7263;49.418;11.064;2024-02-04T03:42:49;1.37;;;1.27;;
14358;SDS011;7263;49.418;11.064;2024-02-04T03:45:16;2.17;;;1.33;;
14358;SDS011;7263;49.418;11.064;2024-02-04T03:47:44;1.40;;;1.30;;
14358;SDS011;7263;49.418;11.064;2024-02-04T03:50:13;1.43;;;1.33;;
14358;SDS011;7263;49.418;11.064;2024-02-04T03:52:43;1.43;;;1.33;;
14358;SDS011;7263;49.418;11.064;2024-02-04T03:55:09;1.60;;;1.23;;
14358;SDS011;7263;49.418;11.064;2024-02-04T03:57:42;1.83;;;1.70;;
14358;SDS011;7263;49.418;11.064;2024-02-04T04:00:11;1.63;;;1.40;;
14358;SDS011;7263;49.418;11.064;2024-02-04T04:02:39;1.50;;;1.40;;
14358;SDS011;7263;49.418;11.064;2024-02-04T04:05:12;1.40;;;1.30;;
14358;SDS011;7263;49.418;11.064;2024-02-04T04:07:46;1.40;;;1.20;;
14358;SDS011;7263;49.418;11.064;2024-02-04T04:10:15;1.90;;;1.53;;
14358;SDS011;7263;49.418;11.064;2024-02-04T04:12:45;1.83;;;1.40;;
14358;SDS011;7263;49.418;11.064;2024-02-04T04:15:17;1.33;;;1.23;;
14358;SDS011;7263;49.418;11.064;2024-02-04T04:17:44;1.43;;;1.30;;
14358;SDS011;7263;49.418;11.064;2024-02-04T04:20:19;1.47;;;1.30;;
14358;SDS011;7263;49.418;11.064;2024-02-04T04:22:46;1.77;;;1.50;;
14358;SDS011;7263;49.418;11.064;2024-02-04T04:25:19;1.37;;;1.27;;
14358;SDS011;7263;49.418;11.064;2024-02-04T04:27:49;1.53;;;1.40;;
14358;SDS011;7263;49.418;11.064;2024-02-04T04:30:23;1.70;;;1.53;;
14358;SDS011;7263;49.418;11.064;2024-02-04T04:32:51;1.97;;;1.77;;
14358;SDS011;7263;49.418;11.064;2024-02-04T04:35:19;1.67;;;1.57;;
14358;SDS011;7263;49.418;11.064;2024-02-04T04:37:46;1.60;;;1.50;;
14358;SDS011;7263;49.418;11.064;2024-02-04T04:40:16;1.30;;;1.20;;
14358;SDS011;7263;49.418;11.064;2024-02-04T04:42:52;1.40;;;1.30;;
14358;SDS011;7263;49.418;11.064;2024-02-04T04:45:20;1.50;;;1.40;;
14358;SDS011;7263;49.418;11.064;2024-02-04T04:47:47;1.37;;;1.20;;
14358;SDS011;7263;49.418;11.064;2024-02-04T04:50:24;1.50;;;1.20;;
14358;SDS011;7263;49.418;11.064;2024-02-04T04:52:51;1.20;;;1.10;;
14358;SDS011;7263;49.418;11.064;2024-02-04T04:55:18;1.30;;;1.20;;
14358;SDS011;7263;49.418;11.064;2024-02-04T04:57:54;1.10;;;1.00;;
14358;SDS011;7263;49.418;11.064;2024-02-04T05:00:27;0.97;;;0.90;;
14358;SDS011;7263;49.418;11.064;2024-02-04T05:02:54;1.10;;;1.00;;
14358;SDS011;7263;49.418;11.064;2024-02-04T05:05:21;1.17;;;1.07;;
14358;SDS011;7263;49.418;11.064;2024-02-04T05:07:51;0.93;;;0.90;;
14358;SDS011;7263;49.418;11.064;2024-02-04T05:10:19;0.83;;;0.83;;
14358;SDS011;7263;49.418;11.064;2024-02-04T05:12:46;1.17;;;1.07;;
14358;SDS011;7263;49.418;11.064;2024-02-04T05:15:13;0.83;;;0.80;;
14358;SDS011;7263;49.418;11.064;2024-02-04T05:17:39;1.20;;;1.20;;
14358;SDS011;7263;49.418;11.064;2024-02-04T05:20:09;0.80;;;0.80;;
14358;SDS011;7263;49.418;11.064;2024-02-04T05:22:36;1.40;;;0.90;;
14358;SDS011;7263;49.418;11.064;2024-02-04T05:25:11;0.70;;;0.70;;
14358;SDS011;7263;49.418;11.064;2024-02-04T05:27:37;1.80;;;0.70;;
14358;SDS011;7263;49.418;11.064;2024-02-04T05:30:07;0.70;;;0.60;;
14358;SDS011;7263;49.418;11.064;2024-02-04T05:32:35;0.70;;;0.70;;
14358;SDS011;7263;49.418;11.064;2024-02-04T05:35:04;1.20;;;0.70;;
14358;SDS011;7263;49.418;11.064;2024-02-04T05:37:33;0.53;;;0.53;;
14358;SDS011;7263;49.418;11.064;2024-02-04T05:40:00;2.10;;;0.90;;
14358;SDS011;7263;49.418;11.064;2024-02-04T05:42:31;0.70;;;0.60;;
14358;SDS011;7263;49.418;11.064;2024-02-04T05:45:00;0.97;;;0.70;;
14358;SDS011;7263;49.418;11.064;2024-02-04T05:47:33;0.60;;;0.50;;
14358;SDS011;7263;49.418;11.064;2024-02-04T05:50:08;1.07;;;0.60;;
14358;SDS011;7263;49.418;11.064;2024-02-04T05:52:35;0.47;;;0.47;;
14358;SDS011;7263;49.418;11.064;2024-02-04T05:55:02;0.37;;;0.37;;
14358;SDS011;7263;49.418;11.064;2024-02-04T05:57:30;0.60;;;0.50;;
14358;SDS011;7263;49.418;11.064;2024-02-04T05:59:57;0.30;;;0.30;;
14358;SDS011;7263;49.418;11.064;2024-02-04T06:02:38;1.07;;;0.50;;
14358;SDS011;7263;49.418;11.064;2024-02-04T06:05:11;0.40;;;0.40;;
14358;SDS011;7263;49.418;11.064;2024-02-04T06:07:46;1.30;;;0.37;;
14358;SDS011;7263;49.418;11.064;2024-02-04T06:10:17;0.80;;;0.37;;
14358;SDS011;7263;49.418;11.064;2024-02-04T06:12:48;0.23;;;0.23;;
14358;SDS011;7263;49.418;11.064;2024-02-04T06:15:18;0.30;;;0.30;;
14358;SDS011;7263;49.418;11.064;2024-02-04T06:17:47;0.30;;;0.30;;
14358;SDS011;7263;49.418;11.064;2024-02-04T06:20:14;0.63;;;0.50;;
14358;SDS011;7263;49.418;11.064;2024-02-04T06:22:48;0.30;;;0.30;;
14358;SDS011;7263;49.418;11.064;2024-02-04T06:25:18;0.33;;;0.33;;
14358;SDS011;7263;49.418;11.064;2024-02-04T06:27:45;0.30;;;0.30;;
14358;SDS011;7263;49.418;11.064;2024-02-04T06:30:15;0.30;;;0.30;;
14358;SDS011;7263;49.418;11.064;2024-02-04T06:32:44;0.50;;;0.40;;
14358;SDS011;7263;49.418;11.064;2024-02-04T06:35:16;0.37;;;0.37;;
14358;SDS011;7263;49.418;11.064;2024-02-04T06:37:42;0.30;;;0.30;;
14358;SDS011;7263;49.418;11.064;2024-02-04T06:40:15;0.30;;;0.30;;
14358;SDS011;7263;49.418;11.064;2024-02-04T06:42:42;0.30;;;0.30;;
14358;SDS011;7263;49.418;11.064;2024-02-04T06:45:09;0.33;;;0.33;;
14358;SDS011;7263;49.418;11.064;2024-02-04T06:47:37;0.30;;;0.30;;
14358;SDS011;7263;49.418;11.064;2024-02-04T06:50:05;0.30;;;0.30;;
14358;SDS011;7263;49.418;11.064;2024-02-04T06:52:45;0.40;;;0.40;;
14358;SDS011;7263;49.418;11.064;2024-02-04T06:55:18;0.50;;;0.50;;
14358;SDS011;7263;49.418;11.064;2024-02-04T06:57:48;0.50;;;0.50;;
14358;SDS011;7263;49.418;11.064;2024-02-04T07:00:17;0.30;;;0.30;;
14358;SDS011;7263;49.418;11.064;2024-02-04T07:02:59;0.40;;;0.40;;
14358;SDS011;7263;49.418;11.064;2024-02-04T07:05:25;0.43;;;0.40;;
14358;SDS011;7263;49.418;11.064;2024-02-04T07:08:01;0.40;;;0.40;;
14358;SDS011;7263;49.418;11.064;2024-02-04T07:10:28;0.40;;;0.40;;
14358;SDS011;7263;49.418;11.064;2024-02-04T07:12:57;0.50;;;0.50;;
14358;SDS011;7263;49.418;11.064;2024-02-04T07:15:33;0.40;;;0.37;;
14358;SDS011;7263;49.418;11.064;2024-02-04T07:18:16;0.50;;;0.50;;
14358;SDS011;7263;49.418;11.064;2024-02-04T07:20:47;0.60;;;0.50;;
14358;SDS011;7263;49.418;11.064;2024-02-04T07:23:20;0.30;;;0.30;;
14358;SDS011;7263;49.418;11.064;2024-02-04T07:25:55;0.40;;;0.40;;
14358;SDS011;7263;49.418;11.064;2024-02-04T07:28:22;0.37;;;0.33;;
14358;SDS011;7263;49.418;11.064;2024-02-04T07:30:55;1.30;;;0.97;;
14358;SDS011;7263;49.418;11.064;2024-02-04T07:33:32;0.50;;;0.50;;
14358;SDS011;7263;49.418;11.064;2024-02-04T07:35:58;0.47;;;0.40;;
14358;SDS011;7263;49.418;11.064;2024-02-04T07:38:25;0.87;;;0.40;;
14358;SDS011;7263;49.418;11.064;2024-02-04T07:41:05;0.40;;;0.40;;
14358;SDS011;7263;49.418;11.064;2024-02-04T07:43:32;0.20;;;0.20;;
14358;SDS011;7263;49.418;11.064;2024-02-04T07:46:05;0.30;;;0.30;;
14358;SDS011;7263;49.418;11.064;2024-02-04T07:48:34;0.30;;;0.30;;
14358;SDS011;7263;49.418;11.064;2024-02-04T07:53:49;0.50;;;0.50;;
14358;SDS011;7263;49.418;11.064;2024-02-04T07:56:16;1.40;;;0.83;;
14358;SDS011;7263;49.418;11.064;2024-02-04T07:58:42;0.47;;;0.40;;
14358;SDS011;7263;49.418;11.064;2024-02-04T08:01:09;0.20;;;0.20;;
14358;SDS011;7263;49.418;11.064;2024-02-04T08:03:37;0.70;;;0.30;;
14358;SDS011;7263;49.418;11.064;2024-02-04T08:06:11;0.30;;;0.20;;
14358;SDS011;7263;49.418;11.064;2024-02-04T08:08:38;0.30;;;0.30;;
14358;SDS011;7263;49.418;11.064;2024-02-04T08:11:07;0.47;;;0.47;;
14358;SDS011;7263;49.418;11.064;2024-02-04T08:13:36;0.47;;;0.40;;
14358;SDS011;7263;49.418;11.064;2024-02-04T08:16:05;0.50;;;0.40;;
14358;SDS011;7263;49.418;11.064;2024-02-04T08:18:35;0.20;;;0.20;;
14358;SDS011;7263;49.418;11.064;2024-02-04T08:21:07;0.50;;;0.43;;
14358;SDS011;7263;49.418;11.064;2024-02-04T08:23:33;0.13;;;0.13;;
14358;SDS011;7263;49.418;11.064;2024-02-04T08:26:00;0.33;;;0.33;;
14358;SDS011;7263;49.418;11.064;2024-02-04T08:28:33;0.30;;;0.30;;
14358;SDS011;7263;49.418;11.064;2024-02-04T08:31:07;0.40;;;0.40;;
14358;SDS011;7263;49.418;11.064;2024-02-04T08:33:34;0.63;;;0.30;;
14358;SDS011;7263;49.418;11.064;2024-02-04T08:36:02;0.20;;;0.20;;
14358;SDS011;7263;49.418;11.064;2024-02-04T08:38:35;0.23;;;0.23;;
14358;SDS011;7263;49.418;11.064;2024-02-04T08:41:11;0.33;;;0.33;;
14358;SDS011;7263;49.418;11.064;2024-02-04T08:43:40;0.30;;;0.30;;
14358;SDS011;7263;49.418;11.064;2024-02-04T08:46:06;0.30;;;0.30;;
14358;SDS011;7263;49.418;11.064;2024-02-04T08:48:36;0.33;;;0.23;;
14358;SDS011;7263;49.418;11.064;2024-02-04T08:51:09;0.90;;;0.33;;
14358;SDS011;7263;49.418;11.064;2024-02-04T08:53:44;0.30;;;0.23;;
14358;SDS011;7263;49.418;11.064;2024-02-04T08:56:10;0.77;;;0.37;;
14358;SDS011;7263;49.418;11.064;2024-02-04T08:58:37;0.77;;;0.40;;
14358;SDS011;7263;49.418;11.064;2024-02-04T09:01:04;0.83;;;0.30;;
14358;SDS011;7263;49.418;11.064;2024-02-04T09:03:31;1.43;;;0.40;;
14358;SDS011;7263;49.418;11.064;2024-02-04T09:06:01;0.20;;;0.20;;
14358;SDS011;7263;49.418;11.064;2024-02-04T09:08:30;0.43;;;0.37;;
14358;SDS011;7263;49.418;11.064;2024-02-04T09:10:59;0.40;;;0.37;;
14358;SDS011;7263;49.418;11.064;2024-02-04T09:13:26;0.73;;;0.50;;
14358;SDS011;7263;49.418;11.064;2024-02-04T09:15:55;0.33;;;0.33;;
14358;SDS011;7263;49.418;11.064;2024-02-04T09:18:27;0.30;;;0.30;;
14358;SDS011;7263;49.418;11.064;2024-02-04T09:21:02;0.43;;;0.40;;
14358;SDS011;7263;49.418;11.064;2024-02-04T09:23:33;0.20;;;0.20;;
14358;SDS011;7263;49.418;11.064;2024-02-04T09:26:14;0.30;;;0.30;;
14358;SDS011;7263;49.418;11.064;2024-02-04T09:28:44;0.20;;;0.20;;
14358;SDS011;7263;49.418;11.064;2024-02-04T09:31:28;0.30;;;0.30;;
14358;SDS011;7263;49.418;11.064;2024-02-04T09:33:54;0.63;;;0.37;;
14358;SDS011;7263;49.418;11.064;2024-02-04T09:36:24;0.60;;;0.60;;
14358;SDS011;7263;49.418;11.064;2024-02-04T09:39:00;0.50;;;0.50;;
14358;SDS011;7263;49.418;11.064;2024-02-04T09:41:40;0.50;;;0.50;;
14358;SDS011;7263;49.418;11.064;2024-02-04T09:44:07;0.50;;;0.40;;
14358;SDS011;7263;49.418;11.064;2024-02-04T09:46:36;0.50;;;0.50;;
14358;SDS011;7263;49.418;11.064;2024-02-04T09:49:09;0.67;;;0.47;;
14358;SDS011;7263;49.418;11.064;2024-02-04T09:51:37;0.43;;;0.43;;
14358;SDS011;7263;49.418;11.064;2024-02-04T09:54:22;0.57;;;0.57;;
14358;SDS011;7263;49.418;11.064;2024-02-04T09:56:56;0.40;;;0.33;;
14358;SDS011;7263;49.418;11.064;2024-02-04T09:59:26;0.40;;;0.40;;
14358;SDS011;7263;49.418;11.064;2024-02-04T10:01:53;0.53;;;0.50;;
14358;SDS011;7263;49.418;11.064;2024-02-04T10:04:24;0.40;;;0.40;;
14358;SDS011;7263;49.418;11.064;2024-02-04T10:06:51;0.30;;;0.30;;
14358;SDS011;7263;49.418;11.064;2024-02-04T10:09:26;0.27;;;0.27;;
14358;SDS011;7263;49.418;11.064;2024-02-04T10:12:02;0.40;;;0.40;;
14358;SDS011;7263;49.418;11.064;2024-02-04T10:14:33;0.60;;;0.60;;
14358;SDS011;7263;49.418;11.064;2024-02-04T10:17:03;1.00;;;0.93;;
14358;SDS011;7263;49.418;11.064;2024-02-04T10:19:37;0.43;;;0.40;;
14358;SDS011;7263;49.418;11.064;2024-02-04T10:22:07;0.40;;;0.40;;
14358;SDS011;7263;49.418;11.064;2024-02-04T10:24:40;0.50;;;0.30;;
14358;SDS011;7263;49.418;11.064;2024-02-04T10:27:07;0.53;;;0.30;;
14358;SDS011;7263;49.418;11.064;2024-02-04T10:29:41;0.60;;;0.50;;
14358;SDS011;7263;49.418;11.064;2024-02-04T10:32:07;0.30;;;0.30;;
14358;SDS011;7263;49.418;11.064;2024-02-04T10:34:50;0.30;;;0.30;;
14358;SDS011;7263;49.418;11.064;2024-02-04T10:37:31;1.50;;;0.40;;
14358;SDS011;7263;49.418;11.064;2024-02-04T10:40:03;0.37;;;0.20;;
14358;SDS011;7263;49.418;11.064;2024-02-04T10:42:33;0.60;;;0.50;;
14358;SDS011;7263;49.418;11.064;2024-02-04T10:45:01;0.57;;;0.50;;
14358;SDS011;7263;49.418;11.064;2024-02-04T10:47:33;0.40;;;0.33;;
14358;SDS011;7263;49.418;11.064;2024-02-04T10:50:05;0.77;;;0.60;;
14358;SDS011;7263;49.418;11.064;2024-02-04T10:52:37;0.40;;;0.40;;
14358;SDS011;7263;49.418;11.064;2024-02-04T10:55:07;0.37;;;0.37;;
14358;SDS011;7263;49.418;11.064;2024-02-04T10:57:35;0.60;;;0.60;;
14358;SDS011;7263;49.418;11.064;2024-02-04T11:00:05;0.50;;;0.50;;
14358;SDS011;7263;49.418;11.064;2024-02-04T11:02:37;0.40;;;0.40;;
14358;SDS011;7263;49.418;11.064;2024-02-04T11:05:11;1.13;;;0.80;;
14358;SDS011;7263;49.418;11.064;2024-02-04T11:07:42;0.20;;;0.20;;
14358;SDS011;7263;49.418;11.064;2024-02-04T11:10:16;1.03;;;0.90;;
14358;SDS011;7263;49.418;11.064;2024-02-04T11:12:47;0.50;;;0.50;;
14358;SDS011;7263;49.418;11.064;2024-02-04T11:15:24;0.40;;;0.40;;
14358;SDS011;7263;49.418;11.064;2024-02-04T11:21:19;0.67;;;0.57;;
14358;SDS011;7263;49.418;11.064;2024-02-04T11:24:08;1.03;;;0.73;;
14358;SDS011;7263;49.418;11.064;2024-02-04T11:26:48;2.90;;;2.50;;
14358;SDS011;7263;49.418;11.064;2024-02-04T11:29:15;1.17;;;0.70;;
14358;SDS011;7263;49.418;11.064;2024-02-04T11:31:45;1.03;;;0.80;;
14358;SDS011;7263;49.418;11.064;2024-02-04T11:34:12;0.70;;;0.53;;
14358;SDS011;7263;49.418;11.064;2024-02-04T11:36:39;1.20;;;1.00;;
14358;SDS011;7263;49.418;11.064;2024-02-04T11:39:12;0.67;;;0.60;;
14358;SDS011;7263;49.418;11.064;2024-02-04T11:44:26;0.80;;;0.80;;
14358;SDS011;7263;49.418;11.064;2024-02-04T11:46:54;0.83;;;0.50;;
14358;SDS011;7263;49.418;11.064;2024-02-04T11:49:28;0.43;;;0.43;;
14358;SDS011;7263;49.418;11.064;2024-02-04T11:51:55;0.83;;;0.57;;
14358;SDS011;7263;49.418;11.064;2024-02-04T11:54:22;1.60;;;0.60;;
14358;SDS011;7263;49.418;11.064;2024-02-04T11:56:49;0.40;;;0.40;;
14358;SDS011;7263;49.418;11.064;2024-02-04T11:59:19;0.40;;;0.30;;
14358;SDS011;7263;49.418;11.064;2024-02-04T12:01:50;0.57;;;0.50;;
14358;SDS011;7263;49.418;11.064;2024-02-04T12:04:27;0.50;;;0.50;;
14358;SDS011;7263;49.418;11.064;2024-02-04T12:06:54;0.50;;;0.50;;
14358;SDS011;7263;49.418;11.064;2024-02-04T12:09:27;0.60;;;0.57;;
14358;SDS011;7263;49.418;11.064;2024-02-04T12:11:57;1.70;;;0.80;;
14358;SDS011;7263;49.418;11.064;2024-02-04T12:14:35;0.40;;;0.40;;
14358;SDS011;7263;49.418;11.064;2024-02-04T12:17:06;0.27;;;0.27;;
14358;SDS011;7263;49.418;11.064;2024-02-04T12:19:34;1.10;;;0.57;;
14358;SDS011;7263;49.418;11.064;2024-02-04T12:22:01;0.30;;;0.30;;
14358;SDS011;7263;49.418;11.064;2024-02-04T12:24:40;0.87;;;0.60;;
14358;SDS011;7263;49.418;11.064;2024-02-04T12:27:07;0.73;;;0.67;;
14358;SDS011;7263;49.418;11.064;2024-02-04T12:29:35;0.67;;;0.67;;
14358;SDS011;7263;49.418;11.064;2024-02-04T12:32:02;0.37;;;0.37;;
14358;SDS011;7263;49.418;11.064;2024-02-04T12:34:30;0.30;;;0.30;;
14358;SDS011;7263;49.418;11.064;2024-02-04T12:37:02;0.50;;;0.50;;
14358;SDS011;7263;49.418;11.064;2024-02-04T12:39:37;0.60;;;0.40;;
14358;SDS011;7263;49.418;11.064;2024-02-04T12:42:05;0.33;;;0.33;;
14358;SDS011;7263;49.418;11.064;2024-02-04T12:44:47;0.60;;;0.40;;
14358;SDS011;7263;49.418;11.064;2024-02-04T12:47:14;0.40;;;0.40;;
14358;SDS011;7263;49.418;11.064;2024-02-04T12:49:47;0.30;;;0.30;;
14358;SDS011;7263;49.418;11.064;2024-02-04T12:52:20;0.60;;;0.37;;
14358;SDS011;7263;49.418;11.064;2024-02-04T12:54:49;0.40;;;0.40;;
14358;SDS011;7263;49.418;11.064;2024-02-04T12:57:27;0.53;;;0.53;;
14358;SDS011;7263;49.418;11.064;2024-02-04T13:00:04;1.10;;;0.43;;
14358;SDS011;7263;49.418;11.064;2024-02-04T13:02:33;0.30;;;0.30;;
14358;SDS011;7263;49.418;11.064;2024-02-04T13:05:06;0.60;;;0.37;;
14358;SDS011;7263;49.418;11.064;2024-02-04T13:07:41;0.70;;;0.40;;
14358;SDS011;7263;49.418;11.064;2024-02-04T13:10:20;0.60;;;0.53;;
14358;SDS011;7263;49.418;11.064;2024-02-04T13:12:59;0.40;;;0.40;;
14358;SDS011;7263;49.418;11.064;2024-02-04T13:15:28;0.73;;;0.40;;
14358;SDS011;7263;49.418;11.064;2024-02-04T13:18:09;0.50;;;0.30;;
14358;SDS011;7263;49.418;11.064;2024-02-04T13:20:46;0.70;;;0.47;;
14358;SDS011;7263;49.418;11.064;2024-02-04T13:23:13;0.60;;;0.47;;
14358;SDS011;7263;49.418;11.064;2024-02-04T13:25:40;0.57;;;0.40;;
14358;SDS011;7263;49.418;11.064;2024-02-04T13:28:12;0.30;;;0.30;;
14358;SDS011;7263;49.418;11.064;2024-02-04T13:30:42;0.70;;;0.60;;
14358;SDS011;7263;49.418;11.064;2024-02-04T13:33:09;0.40;;;0.40;;
14358;SDS011;7263;49.418;11.064;2024-02-04T13:35:36;0.40;;;0.40;;
14358;SDS011;7263;49.418;11.064;2024-02-04T13:38:08;1.17;;;0.60;;
14358;SDS011;7263;49.418;11.064;2024-02-04T13:40:39;1.13;;;0.73;;
14358;SDS011;7263;49.418;11.064;2024-02-04T13:43:08;0.60;;;0.40;;
14358;SDS011;7263;49.418;11.064;2024-02-04T13:45:37;0.57;;;0.57;;
14358;SDS011;7263;49.418;11.064;2024-02-04T13:48:11;0.70;;;0.53;;
14358;SDS011;7263;49.418;11.064;2024-02-04T13:50:42;1.70;;;1.40;;
14358;SDS011;7263;49.418;11.064;2024-02-04T13:53:10;1.10;;;1.00;;
14358;SDS011;7263;49.418;11.064;2024-02-04T13:55:40;0.43;;;0.43;;
14358;SDS011;7263;49.418;11.064;2024-02-04T13:58:10;0.40;;;0.40;;
14358;SDS011;7263;49.418;11.064;2024-02-04T14:00:37;0.60;;;0.60;;
14358;SDS011;7263;49.418;11.064;2024-02-04T14:03:20;0.73;;;0.50;;
14358;SDS011;7263;49.418;11.064;2024-02-04T14:05:47;0.43;;;0.43;;
14358;SDS011;7263;49.418;11.064;2024-02-04T14:08:17;0.40;;;0.30;;
14358;SDS011;7263;49.418;11.064;2024-02-04T14:10:46;0.87;;;0.70;;
14358;SDS011;7263;49.418;11.064;2024-02-04T14:13:13;0.70;;;0.53;;
14358;SDS011;7263;49.418;11.064;2024-02-04T14:15:43;2.37;;;1.23;;
14358;SDS011;7263;49.418;11.064;2024-02-04T14:18:09;0.60;;;0.60;;
14358;SDS011;7263;49.418;11.064;2024-02-04T14:20:37;0.70;;;0.70;;
14358;SDS011;7263;49.418;11.064;2024-02-04T14:23:04;0.37;;;0.37;;
14358;SDS011;7263;49.418;11.064;2024-02-04T14:25:31;0.40;;;0.40;;
14358;SDS011;7263;49.418;11.064;2024-02-04T14:28:05;0.30;;;0.30;;
14358;SDS011;7263;49.418;11.064;2024-02-04T14:30:44;0.57;;;0.57;;
14358;SDS011;7263;49.418;11.064;2024-02-04T14:33:11;0.30;;;0.30;;
14358;SDS011;7263;49.418;11.064;2024-02-04T14:35:49;0.50;;;0.43;;
14358;SDS011;7263;49.418;11.064;2024-02-04T14:38:18;0.90;;;0.53;;
14358;SDS011;7263;49.418;11.064;2024-02-04T14:41:02;0.67;;;0.67;;
14358;SDS011;7263;49.418;11.064;2024-02-04T14:43:29;0.53;;;0.50;;
14358;SDS011;7263;49.418;11.064;2024-02-04T14:46:00;0.43;;;0.37;;
14358;SDS011;7263;49.418;11.064;2024-02-04T14:48:30;0.50;;;0.50;;
14358;SDS011;7263;49.418;11.064;2024-02-04T14:51:07;0.60;;;0.53;;
14358;SDS011;7263;49.418;11.064;2024-02-04T14:53:33;0.70;;;0.70;;
14358;SDS011;7263;49.418;11.064;2024-02-04T14:56:06;0.73;;;0.73;;
14358;SDS011;7263;49.418;11.064;2024-02-04T14:58:33;0.57;;;0.57;;
14358;SDS011;7263;49.418;11.064;2024-02-04T15:01:09;0.63;;;0.63;;
14358;SDS011;7263;49.418;11.064;2024-02-04T15:03:35;1.13;;;0.90;;
14358;SDS011;7263;49.418;11.064;2024-02-04T15:06:06;0.40;;;0.40;;
14358;SDS011;7263;49.418;11.064;2024-02-04T15:08:36;0.60;;;0.57;;
14358;SDS011;7263;49.418;11.064;2024-02-04T15:11:08;0.60;;;0.60;;
14358;SDS011;7263;49.418;11.064;2024-02-04T15:13:37;0.70;;;0.60;;
14358;SDS011;7263;49.418;11.064;2024-02-04T15:16:04;1.80;;;1.00;;
14358;SDS011;7263;49.418;11.064;2024-02-04T15:18:34;0.57;;;0.57;;
14358;SDS011;7263;49.418;11.064;2024-02-04T15:21:02;1.23;;;0.70;;
14358;SDS011;7263;49.418;11.064;2024-02-04T15:23:30;0.70;;;0.70;;